Time;durP1;ratioP1;P1;durP2;ratioP2;P2;SDS_P1;SDS_P2;PMS_P1;PMS_P2;Temp;Humidity;BMP_temperature;BMP_pressure;BME280_temperature;BME280_humidity;BME280_pressure;Samples;Min_cycle;Max_cycle;Signal;HPM_P1;HPM_P2
2023/06/28 00:01:36;;;;;;;19.83;11.03;;;;;;;20.42;100.00;99795.38;5022236;28;20290;-60
2023/06/28 00:04:07;;;;;;;11.10;7.47;;;;;;;20.59;100.00;99832.34;5009932;28;20283;-58
2023/06/28 00:06:39;;;;;;;12.93;9.47;;;;;;;20.80;100.00;99846.00;5009436;28;20387;-60
2023/06/28 00:09:10;;;;;;;13.97;8.87;;;;;;;20.85;100.00;99833.28;5023074;28;20379;-59
2023/06/28 00:11:40;;;;;;;14.57;9.40;;;;;;;20.89;100.00;99841.88;5019199;28;20283;-58
2023/06/28 00:14:11;;;;;;;15.13;8.67;;;;;;;20.93;99.57;99846.03;5043721;28;20370;-60
2023/06/28 00:16:41;;;;;;;13.43;8.97;;;;;;;21.00;99.12;99851.81;5034465;28;20290;-57
2023/06/28 00:19:12;;;;;;;15.47;9.23;;;;;;;21.03;98.64;99847.13;5045048;28;20356;-60
2023/06/28 00:21:46;;;;;;;13.00;8.30;;;;;;;20.95;97.23;99838.84;5031657;28;20283;-60
2023/06/28 00:24:16;;;;;;;14.30;8.40;;;;;;;20.89;96.04;99824.16;5044684;28;20298;-60
2023/06/28 00:26:47;;;;;;;21.23;8.93;;;;;;;20.82;96.50;99832.63;5045932;28;20917;-60
2023/06/28 00:29:18;;;;;;;10.90;8.00;;;;;;;20.72;97.06;99844.78;5061424;28;20951;-60
2023/06/28 00:31:48;;;;;;;13.30;8.30;;;;;;;20.65;97.45;99837.22;5025451;28;20294;-59
2023/06/28 00:34:19;;;;;;;13.27;7.57;;;;;;;20.59;98.09;99832.34;5024597;28;20283;-58
2023/06/28 00:36:51;;;;;;;11.43;7.47;;;;;;;20.47;99.00;99815.38;5026996;28;20295;-59
2023/06/28 00:39:21;;;;;;;10.40;6.87;;;;;;;20.47;99.86;99830.44;5037411;28;20303;-60
2023/06/28 00:41:52;;;;;;;11.27;7.03;;;;;;;20.43;100.00;99815.66;5014328;28;20275;-59
2023/06/28 00:44:23;;;;;;;12.60;6.90;;;;;;;20.44;100.00;99822.66;5026483;28;20289;-59
2023/06/28 00:46:54;;;;;;;10.17;8.00;;;;;;;20.30;100.00;99793.53;5033144;28;20362;-60
2023/06/28 00:49:25;;;;;;;13.57;7.37;;;;;;;20.33;100.00;99803.94;5043818;28;20375;-58
2023/06/28 00:51:58;;;;;;;14.37;8.10;;;;;;;20.45;100.00;99792.53;5033569;28;20405;-58
2023/06/28 00:54:29;;;;;;;12.43;7.37;;;;;;;20.44;100.00;99785.50;5044463;28;20487;-58
2023/06/28 00:57:00;;;;;;;15.13;8.00;;;;;;;20.37;100.00;99773.59;5033938;28;21000;-57
2023/06/28 00:59:32;;;;;;;13.63;8.33;;;;;;;20.42;100.00;99774.16;5044427;28;20279;-59
2023/06/28 01:02:03;;;;;;;15.30;8.37;;;;;;;20.38;100.00;99770.84;5013420;28;20283;-58
2023/06/28 01:04:35;;;;;;;12.13;8.30;;;;;;;20.35;100.00;99765.72;5036078;28;20580;-60
2023/06/28 01:07:08;;;;;;;14.53;8.80;;;;;;;20.39;100.00;99779.63;5022666;28;20339;-58
2023/06/28 01:09:40;;;;;;;14.03;8.50;;;;;;;20.37;100.00;99789.53;5022383;28;20743;-60
2023/06/28 01:12:12;;;;;;;10.90;8.27;;;;;;;20.33;100.00;99777.41;5035481;28;20382;-59
2023/06/28 01:14:42;;;;;;;14.10;7.77;;;;;;;20.21;100.00;99779.88;5020229;28;20388;-60
2023/06/28 01:17:13;;;;;;;11.77;7.57;;;;;;;20.27;100.00;99797.22;5034605;28;20290;-58
2023/06/28 01:19:44;;;;;;;13.03;8.40;;;;;;;20.35;100.00;99807.34;5023350;28;20282;-60
2023/06/28 01:22:16;;;;;;;14.13;9.60;;;;;;;20.32;100.00;99791.59;5036313;28;20371;-60
2023/06/28 01:24:49;;;;;;;15.70;9.17;;;;;;;20.40;100.00;99805.25;5019881;28;20316;-59
2023/06/28 01:27:20;;;;;;;16.20;9.87;;;;;;;20.32;100.00;99805.75;5034536;28;20301;-59
2023/06/28 01:29:55;;;;;;;16.77;9.67;;;;;;;20.36;100.00;99803.72;5021692;28;21035;-57
2023/06/28 01:32:27;;;;;;;15.03;8.23;;;;;;;20.28;100.00;99801.56;5034896;28;20773;-57
2023/06/28 01:34:57;;;;;;;17.07;8.53;;;;;;;20.19;100.00;99808.31;5024278;28;20294;-57
2023/06/28 01:37:28;;;;;;;11.63;7.20;;;;;;;20.18;100.00;99809.25;5033218;28;20280;-59
2023/06/28 01:40:02;;;;;;;11.40;8.20;;;;;;;19.89;100.00;99781.06;5024847;28;20282;-58
2023/06/28 01:42:33;;;;;;;13.07;7.53;;;;;;;20.06;100.00;99828.59;5031142;28;20761;-59
2023/06/28 01:45:04;;;;;;;10.93;7.37;;;;;;;20.04;100.00;99830.47;5019293;28;20322;-58
2023/06/28 01:47:35;;;;;;;13.17;7.57;;;;;;;20.02;100.00;99827.94;5032841;28;20355;-60
2023/06/28 01:50:08;;;;;;;14.17;8.30;;;;;;;20.00;100.00;99813.09;5028877;28;20298;-60
2023/06/28 01:52:39;;;;;;;12.37;6.70;;;;;;;19.92;100.00;99799.44;5016402;28;20510;-59
2023/06/28 01:55:12;;;;;;;13.03;7.17;;;;;;;19.92;100.00;99810.03;5023704;28;20374;-59
2023/06/28 01:57:43;;;;;;;12.60;7.33;;;;;;;19.94;100.00;99821.41;5013505;28;20717;-60
2023/06/28 02:00:15;;;;;;;13.30;8.53;;;;;;;19.94;100.00;99819.59;5023294;28;20291;-57
2023/06/28 02:02:45;;;;;;;12.07;7.57;;;;;;;19.97;100.00;99813.28;5013816;28;20275;-60
2023/06/28 02:05:16;;;;;;;14.37;7.47;;;;;;;19.93;100.00;99801.16;5023503;28;20287;-59
2023/06/28 02:07:47;;;;;;;12.53;8.10;;;;;;;20.08;100.00;99820.56;5013472;28;20390;-59
2023/06/28 02:10:20;;;;;;;12.90;7.67;;;;;;;20.02;100.00;99805.88;5023762;28;20390;-57
2023/06/28 02:12:50;;;;;;;14.03;7.63;;;;;;;20.11;100.00;99805.28;5013417;28;20275;-59
2023/06/28 02:15:21;;;;;;;12.80;7.13;;;;;;;20.13;100.00;99786.63;5023434;28;20275;-59
2023/06/28 02:17:55;;;;;;;9.63;6.93;;;;;;;20.09;100.00;99750.63;5014167;28;20302;-59
2023/06/28 02:20:25;;;;;;;10.83;7.00;;;;;;;20.05;100.00;99747.34;5023420;28;20383;-59
2023/06/28 02:22:56;;;;;;;11.70;7.10;;;;;;;20.02;100.00;99736.94;5013182;28;20280;-59
2023/06/28 02:25:29;;;;;;;9.50;7.47;;;;;;;19.90;100.00;99727.09;5023501;28;20399;-58
2023/06/28 02:27:59;;;;;;;12.57;7.90;;;;;;;19.91;100.00;99723.50;5004908;28;20355;-57
2023/06/28 02:30:30;;;;;;;13.90;7.60;;;;;;;20.02;100.00;99726.31;5035922;28;20286;-57
2023/06/28 02:33:00;;;;;;;12.90;7.70;;;;;;;19.79;100.00;99659.72;5032177;28;20374;-57
2023/06/28 02:35:31;;;;;;;13.23;7.50;;;;;;;20.12;100.00;99706.22;5043286;28;20287;-57
2023/06/28 02:38:01;;;;;;;10.67;7.03;;;;;;;20.14;100.00;99699.00;5031623;28;20348;-58
2023/06/28 02:40:34;;;;;;;11.20;6.77;;;;;;;20.30;100.00;99698.00;5042962;28;20348;-58
2023/06/28 02:43:04;;;;;;;9.73;7.60;;;;;;;20.50;100.00;99708.16;5025633;28;20392;-58
2023/06/28 02:45:35;;;;;;;9.50;7.50;;;;;;;20.67;100.00;99707.91;5032900;28;20290;-59
2023/06/28 02:48:06;;;;;;;8.57;6.30;;;;;;;20.77;100.00;99700.19;5042587;28;20283;-58
2023/06/28 02:50:37;;;;;;;8.57;7.07;;;;;;;20.82;100.00;99689.25;5033319;28;20290;-57
2023/06/28 02:53:07;;;;;;;9.23;6.90;;;;;;;20.99;100.00;99707.53;5042873;28;20295;-57
2023/06/28 02:55:39;;;;;;;11.70;7.90;;;;;;;21.10;100.00;99720.06;5026144;28;20311;-58
2023/06/28 02:58:10;;;;;;;16.60;7.93;;;;;;;21.20;100.00;99710.50;5018260;28;20330;-59
2023/06/28 03:00:41;;;;;;;9.33;6.57;;;;;;;21.27;100.00;99717.09;5014993;28;20350;-61
2023/06/28 03:03:13;;;;;;;9.10;7.47;;;;;;;21.38;100.00;99713.69;5035901;28;20400;-61
2023/06/28 03:05:44;;;;;;;10.20;7.47;;;;;;;21.45;100.00;99709.69;5032142;28;20370;-62
2023/06/28 03:08:14;;;;;;;12.33;7.67;;;;;;;21.56;100.00;99705.41;5030697;28;20307;-62
2023/06/28 03:10:49;;;;;;;13.77;8.83;;;;;;;21.58;100.00;99708.81;5029437;28;20385;-62
2023/06/28 03:13:21;;;;;;;11.00;8.23;;;;;;;21.60;100.00;99698.94;5040417;28;20329;-60
2023/06/28 03:16:08;;;;;;;11.60;8.50;;;;;;;21.54;100.00;99687.78;5029190;28;20297;-59
2023/06/28 03:18:45;;;;;;;14.93;8.70;;;;;;;21.70;100.00;99692.00;5028275;28;20136;-62
2023/06/28 03:21:24;;;;;;;11.00;7.60;;;;;;;21.72;100.00;99692.75;5040676;28;20279;-59
2023/06/28 03:24:05;;;;;;;12.70;8.03;;;;;;;21.69;100.00;99679.63;5030517;28;20053;-60
2023/06/28 03:26:41;;;;;;;10.73;7.70;;;;;;;21.73;100.00;99670.50;5029595;28;20106;-59
2023/06/28 03:29:12;;;;;;;13.47;9.13;;;;;;;21.54;100.00;99661.19;5040636;28;20155;-60
2023/06/28 03:31:43;;;;;;;14.80;9.20;;;;;;;21.48;100.00;99660.78;5029824;28;20149;-61
2023/06/28 03:34:14;;;;;;;14.47;10.07;;;;;;;21.31;100.00;99651.28;5039468;28;20061;-61
2023/06/28 03:36:45;;;;;;;13.47;8.53;;;;;;;21.15;100.00;99643.56;5029224;28;20072;-62
2023/06/28 03:39:31;;;;;;;10.13;8.37;;;;;;;20.95;100.00;99626.38;5040478;28;20368;-59
2023/06/28 03:42:04;;;;;;;13.37;7.83;;;;;;;20.91;100.00;99630.19;5029654;28;20060;-63
2023/06/28 03:44:34;;;;;;;13.43;8.70;;;;;;;20.81;100.00;99637.09;5040128;28;20147;-59
2023/06/28 03:47:05;;;;;;;12.33;7.97;;;;;;;20.73;100.00;99655.34;5040096;28;20752;-61
2023/06/28 03:49:36;;;;;;;11.20;8.70;;;;;;;20.55;100.00;99660.94;5032215;28;20290;-62
2023/06/28 03:52:07;;;;;;;11.30;8.47;;;;;;;20.49;100.00;99661.31;5040037;28;20757;-62
2023/06/28 03:54:37;;;;;;;13.87;9.20;;;;;;;20.53;100.00;99667.28;5029452;28;20279;-61
2023/06/28 03:57:10;;;;;;;21.53;11.40;;;;;;;20.42;100.00;99670.66;5040267;28;20332;-60
2023/06/28 03:59:40;;;;;;;25.27;9.50;;;;;;;20.34;100.00;99667.66;5030006;28;20370;-61
2023/06/28 04:02:11;;;;;;;17.30;10.80;;;;;;;20.26;100.00;99684.91;5039516;28;20314;-61
2023/06/28 04:04:42;;;;;;;13.73;10.50;;;;;;;20.21;100.00;99684.38;5028182;28;20291;-59
2023/06/28 04:07:12;;;;;;;15.20;10.67;;;;;;;20.21;100.00;99679.06;5039455;28;20283;-61
2023/06/28 04:09:43;;;;;;;14.37;10.90;;;;;;;20.16;100.00;99667.06;5028946;28;20283;-60
2023/06/28 04:12:15;;;;;;;16.47;11.50;;;;;;;20.30;100.00;99692.72;5039199;28;20328;-59
2023/06/28 04:14:46;;;;;;;13.63;11.83;;;;;;;20.40;100.00;99704.41;5028930;28;20315;-60
2023/06/28 04:17:16;;;;;;;18.57;12.47;;;;;;;20.10;100.00;99676.28;5039041;28;20337;-59
2023/06/28 04:19:47;;;;;;;17.73;12.33;;;;;;;20.07;100.00;99708.31;5029122;28;20286;-61
2023/06/28 04:22:17;;;;;;;16.17;11.50;;;;;;;19.96;100.00;99722.25;5038761;28;20758;-60
2023/06/28 04:24:48;;;;;;;14.87;10.60;;;;;;;19.77;100.00;99722.56;5028954;28;21184;-60
2023/06/28 04:27:20;;;;;;;15.50;11.10;;;;;;;19.64;100.00;99716.28;5039324;28;20366;-61
2023/06/28 04:29:51;;;;;;;15.73;10.37;;;;;;;19.63;100.00;99719.06;5028258;28;20327;-60
2023/06/28 04:32:26;;;;;;;18.07;10.33;;;;;;;19.50;100.00;99672.13;5038768;28;20283;-58
2023/06/28 04:34:59;;;;;;;11.70;8.60;;;;;;;19.64;100.00;99679.19;5028639;28;20850;-60
2023/06/28 04:37:31;;;;;;;11.30;8.37;;;;;;;19.73;100.00;99689.25;5039034;28;20290;-59
2023/06/28 04:40:04;;;;;;;13.20;8.60;;;;;;;19.76;100.00;99689.06;5027455;28;20287;-60
2023/06/28 04:42:36;;;;;;;13.77;10.30;;;;;;;19.66;100.00;99650.78;5038365;28;20295;-59
2023/06/28 04:45:09;;;;;;;13.77;9.63;;;;;;;19.86;100.00;99677.88;5033606;28;20368;-59
2023/06/28 04:47:40;;;;;;;16.40;10.70;;;;;;;19.90;100.00;99674.09;5028486;28;20344;-59
2023/06/28 04:50:12;;;;;;;15.17;11.50;;;;;;;19.88;100.00;99675.97;5038913;28;20750;-61
2023/06/28 04:52:42;;;;;;;12.10;10.47;;;;;;;20.04;100.00;99697.88;5027825;28;20783;-62
2023/06/28 04:55:13;;;;;;;14.37;10.17;;;;;;;20.07;100.00;99687.09;5038430;28;20290;-61
2023/06/28 04:57:45;;;;;;;12.10;9.83;;;;;;;20.22;100.00;99712.63;5028285;28;20330;-60
2023/06/28 05:00:17;;;;;;;12.50;10.23;;;;;;;20.18;100.00;99700.50;5038736;28;20328;-59
2023/06/28 05:02:50;;;;;;;16.80;10.10;;;;;;;20.17;100.00;99703.28;5028236;28;20299;-60
2023/06/28 05:05:20;;;;;;;11.53;9.80;;;;;;;20.14;100.00;99706.94;5038448;28;20727;-60
2023/06/28 05:07:51;;;;;;;14.90;10.53;;;;;;;20.11;100.00;99707.16;5027698;28;20366;-61
2023/06/28 05:10:22;;;;;;;14.87;10.17;;;;;;;20.03;100.00;99707.66;5038072;28;20638;-60
2023/06/28 05:12:55;;;;;;;19.20;11.43;;;;;;;19.97;100.00;99708.06;5027309;28;20389;-62
2023/06/28 05:15:30;;;;;;;16.93;12.93;;;;;;;19.82;100.00;99709.03;5038027;28;20657;-60
2023/06/28 05:18:01;;;;;;;16.13;12.37;;;;;;;19.62;100.00;99694.38;5028413;28;20286;-58
2023/06/28 05:20:31;;;;;;;16.83;12.80;;;;;;;19.18;100.00;99652.94;5038995;28;20344;-57
2023/06/28 05:23:12;;;;;;;14.57;12.47;;;;;;;19.11;100.00;99648.97;5026865;28;20295;-61
2023/06/28 05:25:43;;;;;;;14.63;9.83;;;;;;;19.35;100.00;99692.47;5027341;28;20297;-62
2023/06/28 05:28:16;;;;;;;15.73;10.77;;;;;;;19.24;100.00;99691.44;5037727;28;20279;-61
2023/06/28 05:30:47;;;;;;;14.43;10.30;;;;;;;19.29;100.00;99698.13;5026858;28;20291;-60
2023/06/28 05:33:17;;;;;;;14.93;9.80;;;;;;;19.24;100.00;99697.56;5036928;28;23316;-61
2023/06/28 05:35:49;;;;;;;19.90;10.50;;;;;;;19.15;100.00;99692.84;5027994;28;20290;-60
2023/06/28 05:38:19;;;;;;;18.53;12.07;;;;;;;19.14;100.00;99701.72;5038102;28;20407;-60
2023/06/28 05:40:55;;;;;;;15.17;9.67;;;;;;;19.07;100.00;99698.63;5025909;28;20395;-60
2023/06/28 05:43:27;;;;;;;16.80;10.03;;;;;;;19.08;100.00;99702.13;5037383;28;20287;-57
2023/06/28 05:45:58;;;;;;;14.73;9.47;;;;;;;19.03;100.00;99698.88;5026963;28;20290;-62
2023/06/28 05:48:30;;;;;;;14.20;10.17;;;;;;;18.95;100.00;99700.19;5037337;28;21082;-59
2023/06/28 05:51:14;;;;;;;11.37;9.73;;;;;;;18.76;100.00;99686.34;5015215;28;20319;-61
2023/06/28 05:53:46;;;;;;;18.07;10.83;;;;;;;18.80;100.00;99702.91;5018833;28;20333;-58
2023/06/28 05:56:17;;;;;;;14.23;10.80;;;;;;;18.83;100.00;99706.22;5028973;28;21058;-60
2023/06/28 05:58:49;;;;;;;14.83;10.53;;;;;;;18.74;100.00;99706.72;5018646;28;20766;-59
2023/06/28 06:01:20;;;;;;;11.43;9.20;;;;;;;18.77;100.00;99714.53;5029260;28;21656;-61
2023/06/28 06:03:51;;;;;;;20.73;9.90;;;;;;;18.70;100.00;99692.00;5019206;28;20406;-60
2023/06/28 06:06:21;;;;;;;13.70;9.77;;;;;;;18.62;100.00;99683.63;5037644;28;20386;-60
2023/06/28 06:08:52;;;;;;;16.93;9.97;;;;;;;18.53;100.00;99680.59;5028569;28;20325;-58
2023/06/28 06:11:23;;;;;;;16.43;8.97;;;;;;;18.64;100.00;99690.53;5038085;28;20291;-59
2023/06/28 06:13:55;;;;;;;15.77;10.13;;;;;;;18.60;100.00;99690.84;5026782;28;20298;-62
2023/06/28 06:16:26;;;;;;;15.40;10.90;;;;;;;18.47;100.00;99682.72;5037811;28;20765;-62
2023/06/28 06:18:58;;;;;;;19.10;11.70;;;;;;;18.48;100.00;99682.66;5026665;28;20275;-61
2023/06/28 06:21:28;;;;;;;17.50;11.67;;;;;;;18.51;100.00;99693.06;5036535;28;20274;-62
2023/06/28 06:24:01;;;;;;;17.27;9.97;;;;;;;18.44;100.00;99697.00;5026888;28;20287;-62
2023/06/28 06:26:32;;;;;;;27.77;22.47;;;;;;;18.40;100.00;99695.47;5037924;28;20382;-60
2023/06/28 06:29:04;;;;;;;17.63;9.77;;;;;;;18.30;100.00;99700.44;5026414;28;20295;-61
2023/06/28 06:31:35;;;;;;;13.27;10.60;;;;;;;17.99;100.00;99664.31;5035141;28;20646;-60
2023/06/28 06:34:05;;;;;;;15.53;8.80;;;;;;;18.28;100.00;99712.06;5036954;28;20274;-59
2023/06/28 06:36:37;;;;;;;13.97;9.83;;;;;;;18.36;100.00;99704.53;5027338;28;20294;-61
2023/06/28 06:39:07;;;;;;;19.90;10.03;;;;;;;18.31;100.00;99706.59;5037226;28;20303;-61
2023/06/28 06:41:38;;;;;;;15.70;10.20;;;;;;;18.13;100.00;99691.78;5027571;28;20287;-61
2023/06/28 06:44:10;;;;;;;14.80;9.40;;;;;;;18.22;100.00;99709.75;5038967;28;20367;-59
2023/06/28 06:46:41;;;;;;;19.43;10.63;;;;;;;18.24;100.00;99710.50;5029717;28;20298;-61
2023/06/28 06:49:11;;;;;;;18.57;10.40;;;;;;;18.02;100.00;99674.72;5041428;28;20745;-62
2023/06/28 06:51:42;;;;;;;15.27;10.50;;;;;;;18.20;100.00;99701.06;5030366;28;20289;-60
2023/06/28 06:54:12;;;;;;;12.73;10.00;;;;;;;18.17;100.00;99699.44;5040473;28;20318;-62
2023/06/28 06:56:43;;;;;;;19.50;11.00;;;;;;;18.16;100.00;99700.38;5031067;28;20282;-60
2023/06/28 06:59:19;;;;;;;19.13;11.23;;;;;;;18.17;100.00;99698.56;5039845;28;20332;-59
2023/06/28 07:01:50;;;;;;;16.87;10.90;;;;;;;18.09;100.00;99707.78;5029836;28;20287;-61
2023/06/28 07:04:23;;;;;;;15.93;11.30;;;;;;;18.07;100.00;99709.69;5040414;28;21153;-62
2023/06/28 07:06:55;;;;;;;18.40;11.97;;;;;;;18.02;100.00;99695.88;5028979;28;20320;-62
2023/06/28 07:09:26;;;;;;;17.57;11.63;;;;;;;18.09;100.00;99697.22;5040565;28;20279;-61
2023/06/28 07:11:57;;;;;;;15.37;10.17;;;;;;;18.09;100.00;99686.63;5030549;28;20366;-62
2023/06/28 07:14:29;;;;;;;18.27;10.63;;;;;;;18.03;100.00;99687.00;5040755;28;20780;-58
2023/06/28 07:17:00;;;;;;;12.30;8.27;;;;;;;17.89;100.00;99687.75;5030433;28;20286;-61
2023/06/28 07:19:31;;;;;;;15.93;8.07;;;;;;;17.78;100.00;99692.78;5040162;28;20370;-58
2023/06/28 07:22:01;;;;;;;17.43;9.13;;;;;;;17.62;100.00;99687.50;5028497;28;20279;-57
2023/06/28 07:24:32;;;;;;;14.33;8.33;;;;;;;17.44;100.00;99677.91;5040906;28;20299;-59
2023/06/28 07:27:03;;;;;;;19.77;8.90;;;;;;;17.43;100.00;99686.78;5029766;28;20282;-58
2023/06/28 07:29:35;;;;;;;15.13;9.23;;;;;;;17.25;100.00;99684.19;5041125;28;20352;-56
2023/06/28 07:32:07;;;;;;;15.40;8.53;;;;;;;17.22;100.00;99684.34;5030341;28;20401;-60
2023/06/28 07:34:38;;;;;;;12.37;8.80;;;;;;;17.15;100.00;99672.41;5027496;28;20385;-57
2023/06/28 07:37:12;;;;;;;15.67;9.37;;;;;;;16.99;100.00;99660.94;5039828;28;20891;-59
2023/06/28 07:39:42;;;;;;;11.97;7.93;;;;;;;16.90;100.00;99656.13;5027699;28;20393;-59
2023/06/28 07:42:13;;;;;;;11.90;8.70;;;;;;;16.83;100.00;99660.03;5039345;28;20953;-57
2023/06/28 07:44:46;;;;;;;9.93;7.57;;;;;;;16.79;100.00;99651.41;5029701;28;20279;-57
2023/06/28 07:47:16;;;;;;;12.97;8.17;;;;;;;16.84;100.00;99667.00;5039228;28;20348;-59
2023/06/28 07:49:47;;;;;;;11.40;7.60;;;;;;;16.73;100.00;99671.03;5028526;28;20391;-60
2023/06/28 07:52:18;;;;;;;14.07;8.37;;;;;;;16.66;100.00;99672.28;5039132;28;20341;-59
2023/06/28 07:54:49;;;;;;;14.93;7.60;;;;;;;16.68;100.00;99667.78;5027291;28;20306;-58
2023/06/28 07:57:19;;;;;;;9.87;6.70;;;;;;;16.66;100.00;99653.81;5039790;28;20405;-58
2023/06/28 07:59:51;;;;;;;12.27;7.50;;;;;;;16.65;100.00;99649.47;5029768;28;20366;-59
2023/06/28 08:02:22;;;;;;;10.30;6.90;;;;;;;16.66;100.00;99659.09;5039456;28;20282;-60
2023/06/28 08:04:53;;;;;;;11.77;6.73;;;;;;;16.54;100.00;99643.88;5029414;28;20949;-61
2023/06/28 08:07:24;;;;;;;10.00;6.83;;;;;;;16.59;100.00;99652.41;5039283;28;20508;-60
2023/06/28 08:09:55;;;;;;;11.87;6.80;;;;;;;16.69;100.00;99673.91;5029495;28;20355;-60
2023/06/28 08:12:25;;;;;;;10.00;6.70;;;;;;;16.76;100.00;99665.59;5039239;28;21049;-58
2023/06/28 08:14:58;;;;;;;10.20;6.50;;;;;;;16.86;100.00;99657.25;5029686;28;20290;-62
2023/06/28 08:17:28;;;;;;;8.37;7.07;;;;;;;16.91;100.00;99657.84;5039344;28;20295;-60
2023/06/28 08:19:59;;;;;;;10.87;7.17;;;;;;;16.84;100.00;99661.75;5029428;28;20314;-61
2023/06/28 08:22:30;;;;;;;9.23;6.63;;;;;;;16.72;100.00;99668.47;5039425;28;20398;-59
2023/06/28 08:25:01;;;;;;;13.30;6.43;;;;;;;16.61;100.00;99656.66;5027385;28;20306;-59
2023/06/28 08:27:32;;;;;;;9.57;6.67;;;;;;;16.55;100.00;99651.72;5036978;28;20397;-58
2023/06/28 08:30:05;;;;;;;17.80;7.67;;;;;;;16.41;100.00;99642.81;5027830;28;20760;-61
2023/06/28 08:32:36;;;;;;;13.47;8.23;;;;;;;16.44;100.00;99647.91;5034238;28;20306;-61
2023/06/28 08:35:08;;;;;;;15.23;7.87;;;;;;;16.33;100.00;99636.13;5037906;28;20372;-62
2023/06/28 08:37:39;;;;;;;12.60;7.90;;;;;;;16.38;100.00;99644.66;5025851;28;20302;-61
2023/06/28 08:40:12;;;;;;;12.90;6.17;;;;;;;16.28;100.00;99651.31;5038756;28;20298;-60
2023/06/28 08:42:46;;;;;;;10.13;5.73;;;;;;;16.21;100.00;99647.28;5028082;28;20283;-60
2023/06/28 08:45:20;;;;;;;9.67;6.53;;;;;;;16.22;100.00;99643.69;5038273;28;20428;-60
2023/06/28 08:47:50;;;;;;;8.57;6.33;;;;;;;16.22;100.00;99643.69;5028179;28;20801;-60
2023/06/28 08:50:22;;;;;;;10.93;6.70;;;;;;;16.00;100.00;99600.88;5038861;28;20372;-61
2023/06/28 08:52:53;;;;;;;12.53;6.77;;;;;;;16.27;100.00;99652.22;5028390;28;20398;-59
2023/06/28 08:55:24;;;;;;;11.30;7.00;;;;;;;16.23;100.00;99655.97;5038046;28;20295;-61
2023/06/28 08:57:56;;;;;;;12.53;8.40;;;;;;;16.22;100.00;99664.78;5028040;28;20342;-59
2023/06/28 09:00:30;;;;;;;11.97;7.70;;;;;;;16.05;100.00;99656.84;5038381;28;20283;-60
2023/06/28 09:03:03;;;;;;;12.37;8.77;;;;;;;15.96;100.00;99664.28;5028094;28;20298;-59
2023/06/28 09:05:40;;;;;;;13.13;7.93;;;;;;;15.78;100.00;99662.53;5034467;28;20757;-61
2023/06/28 09:08:22;;;;;;;12.10;8.10;;;;;;;15.83;100.00;99671.06;5038118;28;20298;-60
2023/06/28 09:11:03;;;;;;;12.93;8.33;;;;;;;15.76;100.00;99672.28;5027628;28;20296;-60
2023/06/28 09:13:36;;;;;;;15.87;8.70;;;;;;;15.78;100.00;99680.97;5031606;28;20286;-61
2023/06/28 09:16:11;;;;;;;15.00;9.13;;;;;;;15.72;100.00;99686.50;5037991;28;20279;-59
2023/06/28 09:18:43;;;;;;;14.03;8.40;;;;;;;15.65;100.00;99687.69;5027624;28;20283;-61
2023/06/28 09:21:26;;;;;;;14.50;8.20;;;;;;;15.57;100.00;99692.47;5037555;28;20279;-59
2023/06/28 09:23:59;;;;;;;18.13;8.97;;;;;;;15.58;100.00;99696.81;5027872;28;20286;-56
2023/06/28 09:26:34;;;;;;;21.23;9.50;;;;;;;15.54;100.00;99702.22;5038223;28;20379;-60
2023/06/28 09:29:09;;;;;;;18.37;9.97;;;;;;;15.56;100.00;99706.56;5027599;28;21179;-61
2023/06/28 09:31:46;;;;;;;14.47;9.40;;;;;;;15.46;100.00;99699.06;5026828;28;20303;-62
2023/06/28 09:34:24;;;;;;;17.47;9.33;;;;;;;15.48;100.00;99710.41;5037333;28;20294;-63
2023/06/28 09:36:56;;;;;;;17.83;9.27;;;;;;;15.15;100.00;99659.25;5024042;28;20278;-60
2023/06/28 09:39:28;;;;;;;15.03;9.50;;;;;;;15.43;100.00;99707.13;5037866;28;20278;-62
2023/06/28 09:42:03;;;;;;;16.33;9.80;;;;;;;15.25;100.00;99692.13;5027644;28;20283;-61
2023/06/28 09:44:35;;;;;;;20.17;10.37;;;;;;;15.32;100.00;99712.00;5037560;28;20290;-61
2023/06/28 09:47:09;;;;;;;17.10;10.17;;;;;;;15.28;100.00;99692.03;5027795;28;21003;-62
2023/06/28 09:49:41;;;;;;;19.33;10.37;;;;;;;15.35;100.00;99703.13;5026414;28;20318;-60
2023/06/28 09:52:13;;;;;;;19.67;10.03;;;;;;;15.34;100.00;99702.25;5037964;28;20286;-59
2023/06/28 09:54:45;;;;;;;15.93;9.50;;;;;;;15.33;100.00;99716.38;5024538;28;20309;-58
2023/06/28 09:57:18;;;;;;;22.33;11.43;;;;;;;15.05;100.00;99664.97;5037891;28;20283;-61
2023/06/28 09:59:53;;;;;;;17.40;10.90;;;;;;;15.32;100.00;99699.72;5027579;28;20294;-63
2023/06/28 10:02:29;;;;;;;20.43;10.17;;;;;;;15.34;100.00;99702.25;5037608;28;20307;-60
2023/06/28 10:05:04;;;;;;;15.20;9.70;;;;;;;15.25;100.00;99686.88;5026757;28;20301;-63
2023/06/28 10:07:36;;;;;;;22.23;10.03;;;;;;;15.33;100.00;99695.31;5034080;28;20283;-64
2023/06/28 10:10:10;;;;;;;21.07;10.27;;;;;;;15.31;100.00;99698.00;5037438;28;20299;-64
2023/06/28 10:12:43;;;;;;;22.20;10.63;;;;;;;15.12;100.00;99670.78;5027332;28;20291;-60
2023/06/28 10:15:22;;;;;;;16.43;10.37;;;;;;;15.29;100.00;99688.47;5037779;28;20981;-63
2023/06/28 10:17:56;;;;;;;15.45;10.02;;;;;;;15.29;100.00;99683.19;5028210;28;20278;-65
2023/06/28 10:20:28;;;;;;;21.60;10.20;;;;;;;15.27;100.00;99685.03;5040036;28;20495;-63
2023/06/28 10:23:00;;;;;;;20.10;10.17;;;;;;;15.35;100.00;99690.84;5030133;28;20356;-62
2023/06/28 10:25:33;;;;;;;18.57;9.50;;;;;;;15.37;100.00;99694.22;5039555;28;20299;-61
2023/06/28 10:28:05;;;;;;;17.20;9.13;;;;;;;15.38;100.00;99688.06;5028532;28;20283;-59
2023/06/28 10:30:38;;;;;;;13.80;9.50;;;;;;;15.31;100.00;99668.19;5029610;28;20297;-61
2023/06/28 10:33:11;;;;;;;16.03;8.80;;;;;;;15.43;100.00;99675.53;5041071;28;20283;-63
2023/06/28 10:35:45;;;;;;;14.17;9.23;;;;;;;15.49;100.00;99675.25;5030625;28;20385;-62
2023/06/28 10:38:17;;;;;;;14.27;9.03;;;;;;;15.57;100.00;99687.19;5041189;28;20295;-62
2023/06/28 10:40:49;;;;;;;17.87;10.07;;;;;;;15.59;100.00;99685.34;5030649;28;20295;-61
2023/06/28 10:43:24;;;;;;;16.57;9.77;;;;;;;15.58;100.00;99673.97;5040627;28;20503;-61
2023/06/28 10:45:56;;;;;;;14.40;9.50;;;;;;;15.62;100.00;99679.94;5030892;28;20983;-60
2023/06/28 10:48:31;;;;;;;13.87;9.23;;;;;;;15.62;100.00;99679.94;5041133;28;20275;-63
2023/06/28 10:51:05;;;;;;;15.40;9.67;;;;;;;15.60;100.00;99676.50;5029253;28;20290;-60
2023/06/28 10:53:38;;;;;;;17.47;10.07;;;;;;;15.65;100.00;99691.19;5032103;28;20290;-61
2023/06/28 10:56:12;;;;;;;21.93;10.03;;;;;;;15.59;100.00;99690.63;5039987;28;20371;-61
2023/06/28 10:58:45;;;;;;;21.23;9.57;;;;;;;15.54;100.00;99689.03;5029972;28;20301;-62
2023/06/28 11:01:34;;;;;;;16.77;8.60;;;;;;;15.49;100.00;99684.91;5040462;28;20286;-58
2023/06/28 11:04:20;;;;;;;16.45;9.32;;;;;;;15.54;100.00;99694.31;5029977;28;20340;-61
2023/06/28 11:07:12;;;;;;;28.40;10.07;;;;;;;15.58;100.00;99694.19;5026805;28;20220;-64
2023/06/28 11:10:16;;;;;;;20.10;10.10;;;;;;;15.51;100.00;99694.47;5030250;28;20373;-64
2023/06/28 11:13:23;;;;;;;15.43;9.93;;;;;;;15.50;100.00;99697.16;5030972;28;20318;-64
2023/06/28 11:20:19;;;;;;;19.10;10.00;;;;;;;15.49;100.00;99696.31;5029769;28;20846;-63
2023/06/28 11:22:53;;;;;;;15.17;10.17;;;;;;;15.21;100.00;99659.00;5030761;28;21073;-63
2023/06/28 11:25:30;;;;;;;16.70;9.60;;;;;;;15.48;100.00;99705.13;5041256;28;20282;-63
2023/06/28 11:28:05;;;;;;;18.23;10.00;;;;;;;15.50;100.00;99698.03;5029504;28;20405;-62
2023/06/28 11:31:12;;;;;;;16.93;10.40;;;;;;;15.49;100.00;99705.97;5030753;28;20690;-61
2023/06/28 11:33:45;;;;;;;15.50;10.57;;;;;;;15.43;100.00;99701.88;5030453;28;20468;-63
2023/06/28 11:36:19;;;;;;;21.47;11.13;;;;;;;15.43;100.00;99701.88;5040780;28;20278;-61
2023/06/28 11:38:51;;;;;;;27.10;12.00;;;;;;;15.41;100.00;99702.84;5030200;28;20799;-62
2023/06/28 11:41:23;;;;;;;36.80;12.70;;;;;;;15.39;100.00;99702.91;5041279;28;20287;-57
2023/06/28 11:44:03;;;;;;;46.90;12.17;;;;;;;15.37;100.00;99702.13;5029085;28;20291;-61